首页
METAR-TAF:

METAR-TAF

机场 :

阿拉木图国际机场

阿拉木圖, 哈萨克斯坦

纬度: 43-14N, 经度: 076-56E, 海拔: 847米

当前天气观测

该预报发布于32分钟前的01:30 UTC
风速2节,风向多变
温度 14°C
湿度 72%
气压 1014 hPa
能见度10公里或以上

METAR: UAAA 260130Z VRB01MPS 9999 NSC 14/09 Q1014 R05R/CLRD65 NOSIG

时间: 08:02 (02:02 UTC)

预报

该预报发布于3小时和2分钟前的23:00 UTC
预报有效从26日的 00点(UTC)到 26日的 24点(UTC)
风速10节,风向东转东北
能见度10公里或以上
散云层高于5000英尺
多云层高于10000英尺
短暂存在
从 26日的 00点(UTC)到 26日的 02点(UTC)
风速10节,风向南转南东
能見度: 5000
轻雾, 烟
成为
从 26日的 12点(UTC)到 26日的 13点(UTC)
风速10节,风向南转南东
短暂存在
从 26日的 12点(UTC)到 26日的 24点(UTC)
能見度: 3000

TAF: UAAA 252300Z 2600/2624 06005MPS 9999 SCT050 BKN100 TX27/2609Z TN07/2601Z TEMPO 2600/2602 16005MPS 5000 BR FU BECMG 2612/2613 16005MPS TEMPO 2612/2624 3000 FU

超过4000个机场的气象观测和天气预报(METAR&TAF报告)。

可查询的气象台以黄色和红色小点在地图上表示。

将鼠标移到小点上方,可查看气象台名称。

然后点击查看天气观测和预报。

如需切换地图:点击带黑十字的绿色按钮放大地图;点击带横线的绿色按钮缩小地图;或者点击绿色箭头查看邻近地区的地图。


METAR-TAF: